KECG/ECG METAR and TAF weather

Enter ICAO airport designator
Station Type Date Time Source
KECG METAR 2018/10/19 14:54 UTC NOAA

KECG 191454Z 36005KT 10SM CLR 16/02 A3038 RMK AO2 SLP288 T01610022 58001


Station Type Date Time Source
KECG Decoded METAR 2018/10/19 14:54 UTC NOAA

ELIZABETH CITY C/G REGN AIRPORT , NC, United States (KECG) 36-15N 076-10W 11M
Oct 19, 2018 - 10:54 AM EDT / 2018.10.19 1454 UTC
Wind: from the N (360 degrees) at 6 MPH (5 KT):0
Visibility: 10 mile(s):0
Sky conditions: clear
Temperature: 61.0 F (16.1 C)
Dew Point: 36.0 F (2.2 C)
Relative Humidity: 39%
Pressure (altimeter): 30.38 in. Hg (1028 hPa)
Pressure tendency: 0.00 inches (0.1 hPa) lower than three hours ago
ob: KECG 191454Z 36005KT 10SM CLR 16/02 A3038 RMK AO2 SLP288 T01610022 58001
cycle: 15

Station Type Date Time Source
KECG TAF 2018/10/19 12:24 UTC NOAA

TAF KECG 191120Z 1912/2012 VRB02KT P6SM SKC
FM191500 15005KT P6SM SKC
FM191800 18008KT P6SM SCT250
FM200300 21007KT P6SM SCT150
FM200700 22007KT P6SM BKN080
FM201100 22006KT P6SM OVC060


Example: see airport list